sensor_id;sensor_type;location;lat;lon;timestamp;P1;durP1;ratioP1;P2;durP2;ratioP2
4391;SDS011;2210;51.938;8.488;2023-07-29T00:02:28;1.67;;;1.57;;
4391;SDS011;2210;51.938;8.488;2023-07-29T00:06:30;1.30;;;1.20;;
4391;SDS011;2210;51.938;8.488;2023-07-29T00:10:37;1.88;;;1.50;;
4391;SDS011;2210;51.938;8.488;2023-07-29T00:14:37;1.20;;;1.10;;
4391;SDS011;2210;51.938;8.488;2023-07-29T00:18:38;1.87;;;1.60;;
4391;SDS011;2210;51.938;8.488;2023-07-29T00:22:41;1.47;;;1.20;;
4391;SDS011;2210;51.938;8.488;2023-07-29T00:26:45;1.40;;;1.30;;
4391;SDS011;2210;51.938;8.488;2023-07-29T00:30:45;1.60;;;1.50;;
4391;SDS011;2210;51.938;8.488;2023-07-29T00:34:45;2.67;;;1.77;;
4391;SDS011;2210;51.938;8.488;2023-07-29T00:38:46;1.57;;;1.47;;
4391;SDS011;2210;51.938;8.488;2023-07-29T00:42:49;1.73;;;1.20;;
4391;SDS011;2210;51.938;8.488;2023-07-29T00:46:59;2.90;;;1.70;;
4391;SDS011;2210;51.938;8.488;2023-07-29T00:51:02;2.90;;;1.77;;
4391;SDS011;2210;51.938;8.488;2023-07-29T00:55:03;3.43;;;2.00;;
4391;SDS011;2210;51.938;8.488;2023-07-29T00:59:04;2.37;;;1.60;;
4391;SDS011;2210;51.938;8.488;2023-07-29T01:03:10;3.10;;;1.83;;
4391;SDS011;2210;51.938;8.488;2023-07-29T01:07:20;3.23;;;2.07;;
4391;SDS011;2210;51.938;8.488;2023-07-29T01:15:45;3.17;;;1.57;;
4391;SDS011;2210;51.938;8.488;2023-07-29T01:19:55;1.80;;;1.70;;
4391;SDS011;2210;51.938;8.488;2023-07-29T01:24:05;1.73;;;1.50;;
4391;SDS011;2210;51.938;8.488;2023-07-29T01:28:05;2.00;;;1.40;;
4391;SDS011;2210;51.938;8.488;2023-07-29T01:32:17;1.63;;;1.53;;
4391;SDS011;2210;51.938;8.488;2023-07-29T01:36:23;2.17;;;1.97;;
4391;SDS011;2210;51.938;8.488;2023-07-29T01:40:28;4.60;;;1.77;;
4391;SDS011;2210;51.938;8.488;2023-07-29T01:44:28;5.60;;;2.10;;
4391;SDS011;2210;51.938;8.488;2023-07-29T01:48:28;1.60;;;1.43;;
4391;SDS011;2210;51.938;8.488;2023-07-29T01:52:40;1.60;;;1.50;;
4391;SDS011;2210;51.938;8.488;2023-07-29T01:56:40;1.80;;;1.70;;
4391;SDS011;2210;51.938;8.488;2023-07-29T02:00:41;2.00;;;1.80;;
4391;SDS011;2210;51.938;8.488;2023-07-29T02:04:44;2.40;;;2.20;;
4391;SDS011;2210;51.938;8.488;2023-07-29T02:08:45;1.80;;;1.70;;
4391;SDS011;2210;51.938;8.488;2023-07-29T02:12:45;4.33;;;1.67;;
4391;SDS011;2210;51.938;8.488;2023-07-29T02:16:45;2.37;;;1.80;;
4391;SDS011;2210;51.938;8.488;2023-07-29T02:20:46;2.03;;;1.83;;
4391;SDS011;2210;51.938;8.488;2023-07-29T02:24:55;4.67;;;2.33;;
4391;SDS011;2210;51.938;8.488;2023-07-29T02:28:55;2.57;;;2.37;;
4391;SDS011;2210;51.938;8.488;2023-07-29T02:33:02;2.90;;;1.93;;
4391;SDS011;2210;51.938;8.488;2023-07-29T02:37:05;1.83;;;1.67;;
4391;SDS011;2210;51.938;8.488;2023-07-29T02:41:06;2.63;;;2.30;;
4391;SDS011;2210;51.938;8.488;2023-07-29T02:45:06;5.80;;;3.10;;
4391;SDS011;2210;51.938;8.488;2023-07-29T02:49:09;2.63;;;2.20;;
4391;SDS011;2210;51.938;8.488;2023-07-29T02:53:09;4.27;;;1.93;;
4391;SDS011;2210;51.938;8.488;2023-07-29T02:57:10;5.27;;;2.60;;
4391;SDS011;2210;51.938;8.488;2023-07-29T03:01:10;6.43;;;2.47;;
4391;SDS011;2210;51.938;8.488;2023-07-29T03:05:10;2.97;;;2.40;;
4391;SDS011;2210;51.938;8.488;2023-07-29T03:09:11;4.50;;;2.40;;
4391;SDS011;2210;51.938;8.488;2023-07-29T03:13:11;3.47;;;2.53;;
4391;SDS011;2210;51.938;8.488;2023-07-29T03:17:14;3.13;;;2.80;;
4391;SDS011;2210;51.938;8.488;2023-07-29T03:21:21;6.70;;;2.50;;
4391;SDS011;2210;51.938;8.488;2023-07-29T03:25:30;3.10;;;2.33;;
4391;SDS011;2210;51.938;8.488;2023-07-29T03:29:33;3.10;;;2.10;;
4391;SDS011;2210;51.938;8.488;2023-07-29T03:33:37;2.30;;;2.10;;
4391;SDS011;2210;51.938;8.488;2023-07-29T03:37:37;1.80;;;1.70;;
4391;SDS011;2210;51.938;8.488;2023-07-29T03:41:37;1.63;;;1.47;;
4391;SDS011;2210;51.938;8.488;2023-07-29T03:45:39;2.23;;;1.60;;
4391;SDS011;2210;51.938;8.488;2023-07-29T03:49:42;2.13;;;2.00;;
4391;SDS011;2210;51.938;8.488;2023-07-29T03:53:43;2.00;;;1.90;;
4391;SDS011;2210;51.938;8.488;2023-07-29T03:57:46;1.90;;;1.80;;
4391;SDS011;2210;51.938;8.488;2023-07-29T04:01:46;2.20;;;1.60;;
4391;SDS011;2210;51.938;8.488;2023-07-29T04:05:47;1.80;;;1.70;;
4391;SDS011;2210;51.938;8.488;2023-07-29T04:09:47;1.80;;;1.70;;
4391;SDS011;2210;51.938;8.488;2023-07-29T04:13:47;4.13;;;1.80;;
4391;SDS011;2210;51.938;8.488;2023-07-29T04:17:47;7.20;;;2.00;;
4391;SDS011;2210;51.938;8.488;2023-07-29T04:21:48;1.90;;;1.80;;
4391;SDS011;2210;51.938;8.488;2023-07-29T04:25:56;3.13;;;2.00;;
4391;SDS011;2210;51.938;8.488;2023-07-29T04:29:57;2.00;;;1.73;;
4391;SDS011;2210;51.938;8.488;2023-07-29T04:33:57;2.00;;;1.90;;
4391;SDS011;2210;51.938;8.488;2023-07-29T04:37:57;1.73;;;1.57;;
4391;SDS011;2210;51.938;8.488;2023-07-29T04:41:58;2.55;;;2.17;;
4391;SDS011;2210;51.938;8.488;2023-07-29T04:45:58;2.73;;;2.47;;
4391;SDS011;2210;51.938;8.488;2023-07-29T04:49:58;5.80;;;2.07;;
4391;SDS011;2210;51.938;8.488;2023-07-29T04:54:00;2.47;;;2.00;;
4391;SDS011;2210;51.938;8.488;2023-07-29T04:58:01;2.93;;;2.00;;
4391;SDS011;2210;51.938;8.488;2023-07-29T05:02:07;8.30;;;2.33;;
4391;SDS011;2210;51.938;8.488;2023-07-29T05:06:07;2.60;;;2.40;;
4391;SDS011;2210;51.938;8.488;2023-07-29T05:10:08;4.60;;;2.80;;
4391;SDS011;2210;51.938;8.488;2023-07-29T05:14:09;3.20;;;2.30;;
4391;SDS011;2210;51.938;8.488;2023-07-29T05:18:09;2.03;;;1.83;;
4391;SDS011;2210;51.938;8.488;2023-07-29T05:22:13;2.80;;;2.60;;
4391;SDS011;2210;51.938;8.488;2023-07-29T05:26:14;2.67;;;1.90;;
4391;SDS011;2210;51.938;8.488;2023-07-29T05:30:17;3.30;;;2.33;;
4391;SDS011;2210;51.938;8.488;2023-07-29T05:34:17;2.10;;;1.90;;
4391;SDS011;2210;51.938;8.488;2023-07-29T05:38:21;3.00;;;2.03;;
4391;SDS011;2210;51.938;8.488;2023-07-29T05:42:27;2.27;;;2.07;;
4391;SDS011;2210;51.938;8.488;2023-07-29T05:46:28;4.73;;;2.40;;
4391;SDS011;2210;51.938;8.488;2023-07-29T05:50:28;8.07;;;2.27;;
4391;SDS011;2210;51.938;8.488;2023-07-29T05:54:34;3.40;;;2.03;;
4391;SDS011;2210;51.938;8.488;2023-07-29T05:58:37;3.70;;;1.67;;
4391;SDS011;2210;51.938;8.488;2023-07-29T06:02:47;4.57;;;1.77;;
4391;SDS011;2210;51.938;8.488;2023-07-29T06:06:53;1.90;;;1.80;;
4391;SDS011;2210;51.938;8.488;2023-07-29T06:10:55;1.97;;;1.80;;
4391;SDS011;2210;51.938;8.488;2023-07-29T06:14:58;2.00;;;1.90;;
4391;SDS011;2210;51.938;8.488;2023-07-29T06:19:01;1.60;;;1.50;;
4391;SDS011;2210;51.938;8.488;2023-07-29T06:23:03;2.60;;;1.80;;
4391;SDS011;2210;51.938;8.488;2023-07-29T06:27:07;4.50;;;2.03;;
4391;SDS011;2210;51.938;8.488;2023-07-29T06:31:10;2.53;;;1.60;;
4391;SDS011;2210;51.938;8.488;2023-07-29T06:35:10;1.97;;;1.87;;
4391;SDS011;2210;51.938;8.488;2023-07-29T06:39:14;3.30;;;2.03;;
4391;SDS011;2210;51.938;8.488;2023-07-29T06:43:14;2.50;;;2.30;;
4391;SDS011;2210;51.938;8.488;2023-07-29T06:47:14;3.00;;;2.07;;
4391;SDS011;2210;51.938;8.488;2023-07-29T06:51:17;3.10;;;2.30;;
4391;SDS011;2210;51.938;8.488;2023-07-29T06:55:21;2.77;;;2.10;;
4391;SDS011;2210;51.938;8.488;2023-07-29T06:59:24;3.43;;;2.90;;
4391;SDS011;2210;51.938;8.488;2023-07-29T07:03:25;3.33;;;3.03;;
4391;SDS011;2210;51.938;8.488;2023-07-29T07:07:26;3.33;;;2.83;;
4391;SDS011;2210;51.938;8.488;2023-07-29T07:11:26;5.13;;;3.00;;
4391;SDS011;2210;51.938;8.488;2023-07-29T07:15:38;3.73;;;3.40;;
4391;SDS011;2210;51.938;8.488;2023-07-29T07:19:38;8.80;;;4.50;;
4391;SDS011;2210;51.938;8.488;2023-07-29T07:23:39;4.40;;;4.00;;
4391;SDS011;2210;51.938;8.488;2023-07-29T07:27:39;5.77;;;4.97;;
4391;SDS011;2210;51.938;8.488;2023-07-29T07:31:40;11.93;;;6.63;;
4391;SDS011;2210;51.938;8.488;2023-07-29T07:35:49;6.73;;;6.10;;
4391;SDS011;2210;51.938;8.488;2023-07-29T07:39:56;8.83;;;6.47;;
4391;SDS011;2210;51.938;8.488;2023-07-29T07:43:56;7.07;;;6.27;;
4391;SDS011;2210;51.938;8.488;2023-07-29T07:47:56;6.33;;;5.70;;
4391;SDS011;2210;51.938;8.488;2023-07-29T07:51:57;5.80;;;5.30;;
4391;SDS011;2210;51.938;8.488;2023-07-29T07:55:57;6.50;;;5.83;;
4391;SDS011;2210;51.938;8.488;2023-07-29T07:59:57;5.20;;;4.77;;
4391;SDS011;2210;51.938;8.488;2023-07-29T08:03:58;4.70;;;4.27;;
4391;SDS011;2210;51.938;8.488;2023-07-29T08:07:58;3.80;;;3.10;;
4391;SDS011;2210;51.938;8.488;2023-07-29T08:11:58;3.00;;;2.80;;
4391;SDS011;2210;51.938;8.488;2023-07-29T08:16:02;5.40;;;2.10;;
4391;SDS011;2210;51.938;8.488;2023-07-29T08:20:02;2.93;;;2.00;;
4391;SDS011;2210;51.938;8.488;2023-07-29T08:24:05;2.60;;;2.30;;
4391;SDS011;2210;51.938;8.488;2023-07-29T08:28:07;2.90;;;2.00;;
4391;SDS011;2210;51.938;8.488;2023-07-29T08:32:07;1.83;;;1.73;;
4391;SDS011;2210;51.938;8.488;2023-07-29T08:36:08;4.00;;;2.33;;
4391;SDS011;2210;51.938;8.488;2023-07-29T08:40:22;2.03;;;1.80;;
4391;SDS011;2210;51.938;8.488;2023-07-29T08:44:42;2.30;;;2.10;;
4391;SDS011;2210;51.938;8.488;2023-07-29T08:48:43;2.50;;;2.30;;
4391;SDS011;2210;51.938;8.488;2023-07-29T08:52:44;2.30;;;2.10;;
4391;SDS011;2210;51.938;8.488;2023-07-29T08:56:45;2.37;;;1.93;;
4391;SDS011;2210;51.938;8.488;2023-07-29T09:00:49;1.63;;;1.53;;
4391;SDS011;2210;51.938;8.488;2023-07-29T09:04:50;2.07;;;1.80;;
4391;SDS011;2210;51.938;8.488;2023-07-29T09:08:50;2.20;;;1.53;;
4391;SDS011;2210;51.938;8.488;2023-07-29T09:12:51;1.23;;;1.13;;
4391;SDS011;2210;51.938;8.488;2023-07-29T09:16:52;2.47;;;1.03;;
4391;SDS011;2210;51.938;8.488;2023-07-29T09:20:53;1.30;;;1.20;;
4391;SDS011;2210;51.938;8.488;2023-07-29T09:24:57;2.30;;;1.13;;
4391;SDS011;2210;51.938;8.488;2023-07-29T09:28:57;1.10;;;1.00;;
4391;SDS011;2210;51.938;8.488;2023-07-29T09:32:59;1.10;;;1.00;;
4391;SDS011;2210;51.938;8.488;2023-07-29T09:36:59;1.20;;;1.10;;
4391;SDS011;2210;51.938;8.488;2023-07-29T09:41:00;2.20;;;0.90;;
4391;SDS011;2210;51.938;8.488;2023-07-29T09:45:00;1.23;;;1.10;;
4391;SDS011;2210;51.938;8.488;2023-07-29T09:49:04;3.10;;;1.00;;
4391;SDS011;2210;51.938;8.488;2023-07-29T09:53:09;1.20;;;0.90;;
4391;SDS011;2210;51.938;8.488;2023-07-29T09:57:14;1.00;;;0.90;;
4391;SDS011;2210;51.938;8.488;2023-07-29T10:01:21;0.90;;;0.90;;
4391;SDS011;2210;51.938;8.488;2023-07-29T10:05:22;0.77;;;0.77;;
4391;SDS011;2210;51.938;8.488;2023-07-29T10:09:46;1.20;;;0.80;;
4391;SDS011;2210;51.938;8.488;2023-07-29T10:13:48;3.33;;;0.90;;
4391;SDS011;2210;51.938;8.488;2023-07-29T10:17:48;0.90;;;0.80;;
4391;SDS011;2210;51.938;8.488;2023-07-29T10:21:49;1.80;;;0.90;;
4391;SDS011;2210;51.938;8.488;2023-07-29T10:26:04;1.30;;;1.03;;
4391;SDS011;2210;51.938;8.488;2023-07-29T10:30:10;7.33;;;0.90;;
4391;SDS011;2210;51.938;8.488;2023-07-29T10:34:15;1.00;;;0.60;;
4391;SDS011;2210;51.938;8.488;2023-07-29T10:38:19;0.90;;;0.80;;
4391;SDS011;2210;51.938;8.488;2023-07-29T10:42:24;0.80;;;0.77;;
4391;SDS011;2210;51.938;8.488;2023-07-29T10:46:33;2.33;;;0.87;;
4391;SDS011;2210;51.938;8.488;2023-07-29T10:50:37;0.70;;;0.60;;
4391;SDS011;2210;51.938;8.488;2023-07-29T10:54:48;2.50;;;0.80;;
4391;SDS011;2210;51.938;8.488;2023-07-29T10:58:55;1.00;;;0.90;;
4391;SDS011;2210;51.938;8.488;2023-07-29T11:03:06;2.00;;;0.60;;
4391;SDS011;2210;51.938;8.488;2023-07-29T11:11:11;1.03;;;0.67;;
4391;SDS011;2210;51.938;8.488;2023-07-29T11:15:22;1.00;;;0.80;;
4391;SDS011;2210;51.938;8.488;2023-07-29T11:19:27;1.53;;;0.87;;
4391;SDS011;2210;51.938;8.488;2023-07-29T11:23:28;1.27;;;0.80;;
4391;SDS011;2210;51.938;8.488;2023-07-29T11:27:36;3.60;;;1.00;;
4391;SDS011;2210;51.938;8.488;2023-07-29T11:31:40;2.07;;;0.80;;
4391;SDS011;2210;51.938;8.488;2023-07-29T11:35:40;1.10;;;1.00;;
4391;SDS011;2210;51.938;8.488;2023-07-29T11:39:47;1.13;;;1.03;;
4391;SDS011;2210;51.938;8.488;2023-07-29T11:43:53;0.83;;;0.80;;
4391;SDS011;2210;51.938;8.488;2023-07-29T11:47:54;1.20;;;1.03;;
4391;SDS011;2210;51.938;8.488;2023-07-29T11:51:57;1.80;;;0.90;;
4391;SDS011;2210;51.938;8.488;2023-07-29T11:55:57;1.10;;;1.00;;
4391;SDS011;2210;51.938;8.488;2023-07-29T11:59:58;1.27;;;1.13;;
4391;SDS011;2210;51.938;8.488;2023-07-29T12:04:01;4.83;;;0.90;;
4391;SDS011;2210;51.938;8.488;2023-07-29T12:08:02;1.10;;;1.00;;
4391;SDS011;2210;51.938;8.488;2023-07-29T12:12:09;1.60;;;1.10;;
4391;SDS011;2210;51.938;8.488;2023-07-29T12:16:16;1.30;;;1.10;;
4391;SDS011;2210;51.938;8.488;2023-07-29T12:20:24;1.10;;;1.00;;
4391;SDS011;2210;51.938;8.488;2023-07-29T12:24:25;1.47;;;1.13;;
4391;SDS011;2210;51.938;8.488;2023-07-29T12:28:25;2.83;;;1.20;;
4391;SDS011;2210;51.938;8.488;2023-07-29T12:32:26;0.90;;;0.83;;
4391;SDS011;2210;51.938;8.488;2023-07-29T12:36:45;1.30;;;1.20;;
4391;SDS011;2210;51.938;8.488;2023-07-29T12:40:47;1.13;;;1.03;;
4391;SDS011;2210;51.938;8.488;2023-07-29T12:44:47;1.40;;;1.30;;
4391;SDS011;2210;51.938;8.488;2023-07-29T12:48:48;1.20;;;1.10;;
4391;SDS011;2210;51.938;8.488;2023-07-29T12:52:54;1.60;;;1.37;;
4391;SDS011;2210;51.938;8.488;2023-07-29T12:56:54;2.80;;;1.30;;
4391;SDS011;2210;51.938;8.488;2023-07-29T13:00:55;1.23;;;1.10;;
4391;SDS011;2210;51.938;8.488;2023-07-29T13:04:55;2.60;;;1.20;;
4391;SDS011;2210;51.938;8.488;2023-07-29T13:08:55;1.10;;;1.00;;
4391;SDS011;2210;51.938;8.488;2023-07-29T13:12:55;1.10;;;1.00;;
4391;SDS011;2210;51.938;8.488;2023-07-29T13:16:56;1.57;;;1.00;;
4391;SDS011;2210;51.938;8.488;2023-07-29T13:20:56;1.30;;;1.20;;
4391;SDS011;2210;51.938;8.488;2023-07-29T13:24:57;1.50;;;1.40;;
4391;SDS011;2210;51.938;8.488;2023-07-29T13:28:57;1.60;;;1.40;;
4391;SDS011;2210;51.938;8.488;2023-07-29T13:32:57;1.43;;;1.30;;
4391;SDS011;2210;51.938;8.488;2023-07-29T13:36:58;1.93;;;1.40;;
4391;SDS011;2210;51.938;8.488;2023-07-29T13:41:01;1.57;;;1.40;;
4391;SDS011;2210;51.938;8.488;2023-07-29T13:45:05;2.37;;;2.17;;
4391;SDS011;2210;51.938;8.488;2023-07-29T13:49:08;3.13;;;2.57;;
4391;SDS011;2210;51.938;8.488;2023-07-29T13:53:09;4.53;;;2.23;;
4391;SDS011;2210;51.938;8.488;2023-07-29T13:57:12;1.27;;;1.17;;
4391;SDS011;2210;51.938;8.488;2023-07-29T14:01:18;0.93;;;0.93;;
4391;SDS011;2210;51.938;8.488;2023-07-29T14:05:25;1.20;;;1.03;;
4391;SDS011;2210;51.938;8.488;2023-07-29T14:09:25;1.00;;;0.90;;
4391;SDS011;2210;51.938;8.488;2023-07-29T14:13:26;0.77;;;0.77;;
4391;SDS011;2210;51.938;8.488;2023-07-29T14:17:26;0.80;;;0.80;;
4391;SDS011;2210;51.938;8.488;2023-07-29T14:21:27;2.23;;;1.20;;
4391;SDS011;2210;51.938;8.488;2023-07-29T14:25:27;1.73;;;0.90;;
4391;SDS011;2210;51.938;8.488;2023-07-29T14:29:37;1.50;;;1.20;;
4391;SDS011;2210;51.938;8.488;2023-07-29T14:33:40;1.30;;;1.20;;
4391;SDS011;2210;51.938;8.488;2023-07-29T14:37:43;3.73;;;1.50;;
4391;SDS011;2210;51.938;8.488;2023-07-29T14:41:43;1.60;;;1.50;;
4391;SDS011;2210;51.938;8.488;2023-07-29T14:45:47;1.90;;;1.70;;
4391;SDS011;2210;51.938;8.488;2023-07-29T14:49:47;1.50;;;1.40;;
4391;SDS011;2210;51.938;8.488;2023-07-29T14:53:47;2.23;;;1.93;;
4391;SDS011;2210;51.938;8.488;2023-07-29T14:57:54;1.60;;;1.50;;
4391;SDS011;2210;51.938;8.488;2023-07-29T15:02:00;1.60;;;1.50;;
4391;SDS011;2210;51.938;8.488;2023-07-29T15:06:00;1.57;;;1.47;;
4391;SDS011;2210;51.938;8.488;2023-07-29T15:10:00;1.40;;;1.30;;
4391;SDS011;2210;51.938;8.488;2023-07-29T15:14:01;3.10;;;1.40;;
4391;SDS011;2210;51.938;8.488;2023-07-29T15:18:03;1.37;;;1.27;;
4391;SDS011;2210;51.938;8.488;2023-07-29T15:22:03;2.17;;;1.30;;
4391;SDS011;2210;51.938;8.488;2023-07-29T15:26:04;2.10;;;1.47;;
4391;SDS011;2210;51.938;8.488;2023-07-29T15:30:07;1.83;;;1.70;;
4391;SDS011;2210;51.938;8.488;2023-07-29T15:34:08;1.70;;;1.60;;
4391;SDS011;2210;51.938;8.488;2023-07-29T15:38:08;1.70;;;1.60;;
4391;SDS011;2210;51.938;8.488;2023-07-29T15:42:11;3.43;;;1.67;;
4391;SDS011;2210;51.938;8.488;2023-07-29T15:46:15;4.27;;;1.73;;
4391;SDS011;2210;51.938;8.488;2023-07-29T15:50:15;3.40;;;1.33;;
4391;SDS011;2210;51.938;8.488;2023-07-29T15:54:25;2.40;;;1.40;;
4391;SDS011;2210;51.938;8.488;2023-07-29T15:58:25;1.40;;;1.30;;
4391;SDS011;2210;51.938;8.488;2023-07-29T16:02:26;1.30;;;1.10;;
4391;SDS011;2210;51.938;8.488;2023-07-29T16:06:32;1.93;;;1.20;;
4391;SDS011;2210;51.938;8.488;2023-07-29T16:10:36;8.47;;;1.13;;
4391;SDS011;2210;51.938;8.488;2023-07-29T16:14:45;1.63;;;1.10;;
4391;SDS011;2210;51.938;8.488;2023-07-29T16:18:45;1.13;;;1.00;;
4391;SDS011;2210;51.938;8.488;2023-07-29T16:22:46;1.50;;;1.00;;
4391;SDS011;2210;51.938;8.488;2023-07-29T16:26:46;2.40;;;0.97;;
4391;SDS011;2210;51.938;8.488;2023-07-29T16:30:46;1.70;;;1.10;;
4391;SDS011;2210;51.938;8.488;2023-07-29T16:34:47;2.50;;;0.93;;
4391;SDS011;2210;51.938;8.488;2023-07-29T16:38:47;1.98;;;1.00;;
4391;SDS011;2210;51.938;8.488;2023-07-29T16:42:50;1.20;;;1.10;;
4391;SDS011;2210;51.938;8.488;2023-07-29T16:46:51;1.00;;;0.90;;
4391;SDS011;2210;51.938;8.488;2023-07-29T16:50:52;1.60;;;1.03;;
4391;SDS011;2210;51.938;8.488;2023-07-29T16:54:55;1.00;;;0.90;;
4391;SDS011;2210;51.938;8.488;2023-07-29T16:58:55;1.47;;;1.10;;
4391;SDS011;2210;51.938;8.488;2023-07-29T17:02:55;1.63;;;1.00;;
4391;SDS011;2210;51.938;8.488;2023-07-29T17:06:56;1.20;;;1.10;;
4391;SDS011;2210;51.938;8.488;2023-07-29T17:10:56;3.17;;;1.67;;
4391;SDS011;2210;51.938;8.488;2023-07-29T17:14:56;1.47;;;1.20;;
4391;SDS011;2210;51.938;8.488;2023-07-29T17:18:57;2.40;;;1.17;;
4391;SDS011;2210;51.938;8.488;2023-07-29T17:23:00;4.10;;;1.03;;
4391;SDS011;2210;51.938;8.488;2023-07-29T17:27:00;1.20;;;1.10;;
4391;SDS011;2210;51.938;8.488;2023-07-29T17:31:01;1.83;;;1.13;;
4391;SDS011;2210;51.938;8.488;2023-07-29T17:35:02;1.30;;;1.20;;
4391;SDS011;2210;51.938;8.488;2023-07-29T17:39:02;1.43;;;1.10;;
4391;SDS011;2210;51.938;8.488;2023-07-29T17:43:12;1.53;;;1.00;;
4391;SDS011;2210;51.938;8.488;2023-07-29T17:47:15;2.20;;;1.03;;
4391;SDS011;2210;51.938;8.488;2023-07-29T17:51:21;1.10;;;1.00;;
4391;SDS011;2210;51.938;8.488;2023-07-29T17:55:21;2.67;;;1.23;;
4391;SDS011;2210;51.938;8.488;2023-07-29T17:59:21;1.13;;;0.97;;
4391;SDS011;2210;51.938;8.488;2023-07-29T18:03:24;1.40;;;1.20;;
4391;SDS011;2210;51.938;8.488;2023-07-29T18:07:25;1.43;;;0.93;;
4391;SDS011;2210;51.938;8.488;2023-07-29T18:11:25;2.40;;;1.53;;
4391;SDS011;2210;51.938;8.488;2023-07-29T18:15:35;3.30;;;1.13;;
4391;SDS011;2210;51.938;8.488;2023-07-29T18:19:39;1.47;;;1.00;;
4391;SDS011;2210;51.938;8.488;2023-07-29T18:23:46;4.23;;;1.00;;
4391;SDS011;2210;51.938;8.488;2023-07-29T18:27:47;3.23;;;1.00;;
4391;SDS011;2210;51.938;8.488;2023-07-29T18:31:47;1.30;;;1.20;;
4391;SDS011;2210;51.938;8.488;2023-07-29T18:35:47;1.23;;;1.13;;
4391;SDS011;2210;51.938;8.488;2023-07-29T18:39:47;1.20;;;1.10;;
4391;SDS011;2210;51.938;8.488;2023-07-29T18:43:48;1.30;;;1.20;;
4391;SDS011;2210;51.938;8.488;2023-07-29T18:47:52;2.90;;;1.10;;
4391;SDS011;2210;51.938;8.488;2023-07-29T18:51:52;1.27;;;1.00;;
4391;SDS011;2210;51.938;8.488;2023-07-29T18:55:53;1.30;;;1.20;;
4391;SDS011;2210;51.938;8.488;2023-07-29T18:59:59;2.00;;;1.10;;
4391;SDS011;2210;51.938;8.488;2023-07-29T19:04:00;2.10;;;1.20;;
4391;SDS011;2210;51.938;8.488;2023-07-29T19:08:03;2.60;;;1.20;;
4391;SDS011;2210;51.938;8.488;2023-07-29T19:12:07;2.20;;;1.40;;
4391;SDS011;2210;51.938;8.488;2023-07-29T19:16:08;1.20;;;1.10;;
4391;SDS011;2210;51.938;8.488;2023-07-29T19:20:12;2.60;;;1.63;;
4391;SDS011;2210;51.938;8.488;2023-07-29T19:24:15;1.47;;;1.10;;
4391;SDS011;2210;51.938;8.488;2023-07-29T19:28:16;0.80;;;0.80;;
4391;SDS011;2210;51.938;8.488;2023-07-29T19:32:17;2.40;;;1.07;;
4391;SDS011;2210;51.938;8.488;2023-07-29T19:36:18;1.07;;;0.97;;
4391;SDS011;2210;51.938;8.488;2023-07-29T19:40:18;1.20;;;1.10;;
4391;SDS011;2210;51.938;8.488;2023-07-29T19:44:19;1.70;;;1.23;;
4391;SDS011;2210;51.938;8.488;2023-07-29T19:48:19;1.33;;;0.80;;
4391;SDS011;2210;51.938;8.488;2023-07-29T19:52:19;1.48;;;1.10;;
4391;SDS011;2210;51.938;8.488;2023-07-29T19:56:26;3.85;;;1.10;;
4391;SDS011;2210;51.938;8.488;2023-07-29T20:00:26;2.17;;;1.20;;
4391;SDS011;2210;51.938;8.488;2023-07-29T20:04:26;1.23;;;1.07;;
4391;SDS011;2210;51.938;8.488;2023-07-29T20:08:29;2.00;;;1.40;;
4391;SDS011;2210;51.938;8.488;2023-07-29T20:12:30;1.50;;;1.40;;
4391;SDS011;2210;51.938;8.488;2023-07-29T20:16:33;5.90;;;1.83;;
4391;SDS011;2210;51.938;8.488;2023-07-29T20:20:34;3.13;;;1.83;;
4391;SDS011;2210;51.938;8.488;2023-07-29T20:24:35;1.60;;;1.50;;
4391;SDS011;2210;51.938;8.488;2023-07-29T20:28:35;1.70;;;1.60;;
4391;SDS011;2210;51.938;8.488;2023-07-29T20:32:35;1.43;;;1.33;;
4391;SDS011;2210;51.938;8.488;2023-07-29T20:36:36;2.00;;;1.80;;
4391;SDS011;2210;51.938;8.488;2023-07-29T20:40:39;2.73;;;1.50;;
4391;SDS011;2210;51.938;8.488;2023-07-29T20:44:51;2.23;;;1.60;;
4391;SDS011;2210;51.938;8.488;2023-07-29T20:48:51;1.73;;;1.47;;
4391;SDS011;2210;51.938;8.488;2023-07-29T20:52:52;2.67;;;1.60;;
4391;SDS011;2210;51.938;8.488;2023-07-29T20:56:52;1.70;;;1.60;;
4391;SDS011;2210;51.938;8.488;2023-07-29T21:00:53;1.30;;;1.20;;
4391;SDS011;2210;51.938;8.488;2023-07-29T21:04:54;4.57;;;2.30;;
4391;SDS011;2210;51.938;8.488;2023-07-29T21:08:54;1.67;;;1.42;;
4391;SDS011;2210;51.938;8.488;2023-07-29T21:12:54;2.57;;;1.77;;
4391;SDS011;2210;51.938;8.488;2023-07-29T21:16:55;1.63;;;1.40;;
4391;SDS011;2210;51.938;8.488;2023-07-29T21:20:55;1.73;;;1.60;;
4391;SDS011;2210;51.938;8.488;2023-07-29T21:25:01;1.87;;;1.53;;
4391;SDS011;2210;51.938;8.488;2023-07-29T21:29:01;2.27;;;2.00;;
4391;SDS011;2210;51.938;8.488;2023-07-29T21:33:02;3.70;;;1.70;;
4391;SDS011;2210;51.938;8.488;2023-07-29T21:37:02;1.97;;;1.57;;
4391;SDS011;2210;51.938;8.488;2023-07-29T21:41:02;1.90;;;1.70;;
4391;SDS011;2210;51.938;8.488;2023-07-29T21:45:03;1.80;;;1.70;;
4391;SDS011;2210;51.938;8.488;2023-07-29T21:49:10;4.70;;;2.13;;
4391;SDS011;2210;51.938;8.488;2023-07-29T21:53:11;2.27;;;2.07;;
4391;SDS011;2210;51.938;8.488;2023-07-29T21:57:11;4.70;;;2.00;;
4391;SDS011;2210;51.938;8.488;2023-07-29T22:01:11;4.10;;;2.10;;
4391;SDS011;2210;51.938;8.488;2023-07-29T22:05:15;3.03;;;2.00;;
4391;SDS011;2210;51.938;8.488;2023-07-29T22:09:19;1.70;;;1.50;;
4391;SDS011;2210;51.938;8.488;2023-07-29T22:13:25;2.67;;;1.80;;
4391;SDS011;2210;51.938;8.488;2023-07-29T22:17:26;3.73;;;2.17;;
4391;SDS011;2210;51.938;8.488;2023-07-29T22:21:26;4.00;;;1.80;;
4391;SDS011;2210;51.938;8.488;2023-07-29T22:25:26;3.00;;;2.13;;
4391;SDS011;2210;51.938;8.488;2023-07-29T22:29:27;2.03;;;1.83;;
4391;SDS011;2210;51.938;8.488;2023-07-29T22:33:27;3.90;;;2.20;;
4391;SDS011;2210;51.938;8.488;2023-07-29T22:37:27;2.53;;;2.23;;
4391;SDS011;2210;51.938;8.488;2023-07-29T22:41:28;2.53;;;1.80;;
4391;SDS011;2210;51.938;8.488;2023-07-29T22:45:28;5.00;;;2.50;;
4391;SDS011;2210;51.938;8.488;2023-07-29T22:49:28;2.95;;;2.35;;
4391;SDS011;2210;51.938;8.488;2023-07-29T22:53:29;3.33;;;2.70;;
4391;SDS011;2210;51.938;8.488;2023-07-29T22:57:29;2.40;;;2.20;;
4391;SDS011;2210;51.938;8.488;2023-07-29T23:01:36;4.73;;;3.13;;
4391;SDS011;2210;51.938;8.488;2023-07-29T23:05:39;5.37;;;2.60;;
4391;SDS011;2210;51.938;8.488;2023-07-29T23:09:40;5.23;;;2.83;;
4391;SDS011;2210;51.938;8.488;2023-07-29T23:13:49;3.53;;;3.20;;
4391;SDS011;2210;51.938;8.488;2023-07-29T23:17:49;4.53;;;2.83;;
4391;SDS011;2210;51.938;8.488;2023-07-29T23:21:50;3.47;;;2.87;;
4391;SDS011;2210;51.938;8.488;2023-07-29T23:25:51;12.07;;;3.10;;
4391;SDS011;2210;51.938;8.488;2023-07-29T23:29:52;3.30;;;2.70;;
4391;SDS011;2210;51.938;8.488;2023-07-29T23:33:55;2.77;;;2.30;;
4391;SDS011;2210;51.938;8.488;2023-07-29T23:37:55;6.80;;;2.23;;
4391;SDS011;2210;51.938;8.488;2023-07-29T23:41:56;3.00;;;2.70;;
4391;SDS011;2210;51.938;8.488;2023-07-29T23:45:56;2.83;;;2.53;;
4391;SDS011;2210;51.938;8.488;2023-07-29T23:49:57;2.97;;;2.53;;
4391;SDS011;2210;51.938;8.488;2023-07-29T23:53:58;4.57;;;2.20;;
4391;SDS011;2210;51.938;8.488;2023-07-29T23:57:58;7.50;;;2.50;;
